Time;durP1;ratioP1;P1;durP2;ratioP2;P2;SDS_P1;SDS_P2;PMS_P1;PMS_P2;Temp;Humidity;BMP_temperature;BMP_pressure;BME280_temperature;BME280_humidity;BME280_pressure;Samples;Min_cycle;Max_cycle;Signal;HPM_P1;HPM_P2
2021/08/16 00:00:17;;;;;;;10.82;4.70;;;;;;;18.23;76.54;100371.69;695707;28;2243;-56
2021/08/16 00:00:37;;;;;;;10.70;5.18;;;;;;;18.21;76.66;100377.03;694757;28;1647;-56
2021/08/16 00:00:58;;;;;;;9.27;4.80;;;;;;;18.27;76.78;100372.44;693219;28;4300;-51
2021/08/16 00:01:18;;;;;;;8.85;4.82;;;;;;;18.36;75.69;100378.19;693105;28;1696;-54
2021/08/16 00:01:38;;;;;;;8.77;5.00;;;;;;;18.38;75.97;100371.03;694871;28;841;-54
2021/08/16 00:01:59;;;;;;;8.30;4.83;;;;;;;18.48;75.79;100375.97;695186;28;1775;-56
2021/08/16 00:02:21;;;;;;;8.67;4.57;;;;;;;18.48;74.83;100371.50;696619;28;1221;-54
2021/08/16 00:02:45;;;;;;;8.65;4.70;;;;;;;18.46;75.32;100375.19;695964;28;3807;-54
2021/08/16 00:03:05;;;;;;;7.63;4.60;;;;;;;18.46;75.65;100377.81;693423;28;1453;-53
2021/08/16 00:03:25;;;;;;;9.70;4.93;;;;;;;18.39;75.57;100379.84;694944;28;1494;-55
2021/08/16 00:03:46;;;;;;;8.98;4.70;;;;;;;18.38;76.50;100371.03;694009;28;4459;-52
2021/08/16 00:04:06;;;;;;;9.23;4.43;;;;;;;18.44;76.33;100371.72;694478;28;1951;-55
2021/08/16 00:04:26;;;;;;;8.43;4.30;;;;;;;18.48;75.36;100371.50;694784;28;1885;-52
2021/08/16 00:04:47;;;;;;;9.05;4.50;;;;;;;18.45;75.75;100376.09;695092;28;1596;-54
2021/08/16 00:05:07;;;;;;;8.40;4.70;;;;;;;18.46;75.28;100375.19;690413;28;1356;-56
2021/08/16 00:05:28;;;;;;;8.15;4.32;;;;;;;18.43;75.98;100373.50;691884;28;1714;-53
2021/08/16 00:05:48;;;;;;;8.13;4.50;;;;;;;18.49;75.11;100377.69;690179;28;1938;-52
2021/08/16 00:06:08;;;;;;;9.40;4.50;;;;;;;18.41;76.15;100379.78;691318;28;1211;-56
2021/08/16 00:06:29;;;;;;;9.17;4.70;;;;;;;18.32;76.50;100379.25;691218;28;3577;-54
2021/08/16 00:06:49;;;;;;;8.27;4.97;;;;;;;18.35;76.41;100371.19;691017;28;4482;-56
2021/08/16 00:07:09;;;;;;;7.63;4.47;;;;;;;18.31;76.57;100374.88;695301;28;1592;-56
2021/08/16 00:07:30;;;;;;;9.00;4.60;;;;;;;18.28;75.82;100374.16;693573;28;1658;-58
2021/08/16 00:07:50;;;;;;;8.02;4.22;;;;;;;18.14;75.66;100361.50;694352;28;1862;-59
2021/08/16 00:08:11;;;;;;;11.93;4.50;;;;;;;18.09;76.06;100363.47;692196;28;1478;-55
2021/08/16 00:08:31;;;;;;;8.48;4.57;;;;;;;18.20;76.05;100367.38;691300;28;1378;-54
2021/08/16 00:08:52;;;;;;;8.43;4.20;;;;;;;18.29;75.27;100370.56;692174;28;1694;-57
2021/08/16 00:09:12;;;;;;;9.40;4.40;;;;;;;18.33;75.58;100372.16;691886;28;1662;-55
2021/08/16 00:09:32;;;;;;;8.93;4.30;;;;;;;18.38;75.41;100368.41;692691;28;1835;-51
2021/08/16 00:09:53;;;;;;;9.70;4.20;;;;;;;18.45;74.72;100376.94;692327;28;4437;-55
2021/08/16 00:10:15;;;;;;;9.70;4.55;;;;;;;18.45;75.23;100371.66;695037;28;4317;-54
2021/08/16 00:10:37;;;;;;;7.38;4.15;;;;;;;18.42;75.54;100365.66;696268;28;4335;-55
2021/08/16 00:10:57;;;;;;;7.22;4.07;;;;;;;18.44;74.86;100369.06;696059;28;1630;-56
2021/08/16 00:11:18;;;;;;;8.80;4.07;;;;;;;18.45;75.29;100363.72;696253;28;1413;-51
2021/08/16 00:11:39;;;;;;;9.15;4.10;;;;;;;18.46;73.22;100367.25;697132;28;1969;-56
2021/08/16 00:11:59;;;;;;;9.30;3.80;;;;;;;18.37;73.74;100377.28;696518;28;1894;-56
2021/08/16 00:12:20;;;;;;;6.40;3.80;;;;;;;18.45;73.56;100370.81;695686;28;1762;-54
2021/08/16 00:12:41;;;;;;;8.63;3.80;;;;;;;18.43;73.73;100368.22;695077;28;4607;-55
2021/08/16 00:13:02;;;;;;;7.85;3.67;;;;;;;18.44;73.63;100367.31;696362;28;1030;-55
2021/08/16 00:13:26;;;;;;;7.25;3.80;;;;;;;18.39;74.18;100363.97;697585;28;1503;-55
2021/08/16 00:13:46;;;;;;;6.75;3.70;;;;;;;18.38;74.22;100365.75;696740;28;1743;-54
2021/08/16 00:14:07;;;;;;;7.00;3.67;;;;;;;18.42;74.46;100365.66;695923;28;3868;-55
2021/08/16 00:14:27;;;;;;;7.07;3.70;;;;;;;18.54;73.17;100362.47;696323;28;4138;-53
2021/08/16 00:14:47;;;;;;;6.75;3.50;;;;;;;18.60;72.75;100367.50;695884;28;1979;-54
2021/08/16 00:15:08;;;;;;;7.33;3.70;;;;;;;18.60;72.85;100369.28;696122;28;1452;-56
2021/08/16 00:15:29;;;;;;;6.70;3.75;;;;;;;18.53;72.95;100364.25;697103;28;1522;-55
2021/08/16 00:15:50;;;;;;;7.60;3.67;;;;;;;18.45;73.46;100358.41;697965;28;4497;-55
2021/08/16 00:16:11;;;;;;;6.63;3.45;;;;;;;18.44;73.41;100363.78;696658;28;1967;-53
2021/08/16 00:16:33;;;;;;;6.78;3.47;;;;;;;18.38;74.28;100363.09;695818;28;1123;-53
2021/08/16 00:16:56;;;;;;;7.57;3.63;;;;;;;18.38;74.19;100365.75;695898;28;1796;-51
2021/08/16 00:17:16;;;;;;;7.93;3.72;;;;;;;18.48;73.69;100360.91;695841;28;1759;-52
2021/08/16 00:17:37;;;;;;;7.80;4.00;;;;;;;18.49;73.65;100365.31;696146;28;1490;-51
2021/08/16 00:17:59;;;;;;;6.95;3.53;;;;;;;18.51;73.29;100370.53;695558;28;1131;-53
2021/08/16 00:18:19;;;;;;;6.25;3.15;;;;;;;18.47;73.20;100361.00;696516;28;3937;-55
2021/08/16 00:18:40;;;;;;;5.60;3.33;;;;;;;18.41;73.11;100364.75;695308;28;4455;-52
2021/08/16 00:19:00;;;;;;;5.87;3.33;;;;;;;18.47;72.56;100361.00;695726;28;2023;-55
2021/08/16 00:19:21;;;;;;;7.97;3.30;;;;;;;18.38;72.61;100362.25;694121;28;1549;-53
2021/08/16 00:19:41;;;;;;;7.20;3.30;;;;;;;18.42;72.77;100363.00;694702;28;1910;-52
2021/08/16 00:20:02;;;;;;;6.73;3.10;;;;;;;18.45;72.85;100366.34;694339;28;1182;-51
2021/08/16 00:20:23;;;;;;;6.90;3.00;;;;;;;18.43;72.86;100362.03;694390;28;1400;-51
2021/08/16 00:20:43;;;;;;;6.43;3.23;;;;;;;18.42;72.81;100365.66;694563;28;1946;-53
2021/08/16 00:21:03;;;;;;;5.13;2.83;;;;;;;18.50;72.54;100363.53;693787;28;1562;-58
2021/08/16 00:21:24;;;;;;;4.90;2.80;;;;;;;18.36;72.20;100362.31;695079;28;1385;-55
2021/08/16 00:21:44;;;;;;;5.63;2.87;;;;;;;18.40;72.48;100351.59;694707;28;4482;-55
2021/08/16 00:22:05;;;;;;;6.55;2.95;;;;;;;18.42;72.28;100361.19;696721;28;4071;-55
2021/08/16 00:22:26;;;;;;;6.15;2.85;;;;;;;18.46;72.60;100362.78;695745;28;1563;-52
2021/08/16 00:22:46;;;;;;;5.43;2.80;;;;;;;18.59;71.72;100367.56;695750;28;1687;-55
2021/08/16 00:23:07;;;;;;;6.10;3.10;;;;;;;18.46;71.70;100365.44;697359;28;1716;-56
2021/08/16 00:23:27;;;;;;;6.13;3.00;;;;;;;18.35;71.79;100355.31;692330;28;1656;-51
2021/08/16 00:23:48;;;;;;;5.53;2.80;;;;;;;18.28;72.27;100364.44;689807;28;1502;-53
2021/08/16 00:24:08;;;;;;;6.47;2.80;;;;;;;18.36;72.47;100367.63;689308;28;1303;-55
2021/08/16 00:24:29;;;;;;;6.47;2.60;;;;;;;18.34;72.53;100372.09;689379;28;1120;-51
2021/08/16 00:24:49;;;;;;;5.93;2.72;;;;;;;18.26;72.84;100366.25;688688;28;4608;-54
2021/08/16 00:25:10;;;;;;;6.77;2.80;;;;;;;18.18;72.88;100363.94;689348;28;1137;-52
2021/08/16 00:25:30;;;;;;;6.37;2.70;;;;;;;18.14;72.92;100358.84;689708;28;1538;-55
2021/08/16 00:25:50;;;;;;;6.33;2.87;;;;;;;18.17;73.43;100359.56;692419;28;2526;-53
2021/08/16 00:26:12;;;;;;;6.60;3.10;;;;;;;18.24;72.91;100364.63;695862;28;4144;-55
2021/08/16 00:26:33;;;;;;;5.72;2.67;;;;;;;18.13;73.51;100365.06;696015;28;1664;-55
2021/08/16 00:26:53;;;;;;;4.70;2.70;;;;;;;18.08;73.02;100361.75;695658;28;1369;-55
2021/08/16 00:27:13;;;;;;;5.67;3.00;;;;;;;18.08;73.48;100365.22;696638;28;1507;-54
2021/08/16 00:27:34;;;;;;;6.50;2.92;;;;;;;18.13;73.02;100354.47;698279;28;1457;-55
2021/08/16 00:27:55;;;;;;;5.85;2.70;;;;;;;18.06;72.82;100366.25;694808;28;4361;-51
2021/08/16 00:28:15;;;;;;;5.10;2.80;;;;;;;18.03;72.98;100360.13;694838;28;1683;-54
2021/08/16 00:28:36;;;;;;;5.22;2.60;;;;;;;18.00;73.77;100360.28;694936;28;1476;-54
2021/08/16 00:28:59;;;;;;;4.43;2.50;;;;;;;17.96;73.63;100363.97;695186;28;1359;-54
2021/08/16 00:29:19;;;;;;;6.35;2.80;;;;;;;17.96;73.75;100363.97;694586;28;1397;-52
2021/08/16 00:29:40;;;;;;;5.80;2.80;;;;;;;17.96;73.88;100360.47;695320;28;1352;-56
2021/08/16 00:30:04;;;;;;;5.27;2.57;;;;;;;17.98;73.96;100367.38;694320;28;4085;-55
2021/08/16 00:30:24;;;;;;;4.97;2.65;;;;;;;17.90;73.71;100358.88;694479;28;1893;-56
2021/08/16 00:30:45;;;;;;;5.95;2.80;;;;;;;17.86;73.86;100358.16;694245;28;4618;-51
2021/08/16 00:31:05;;;;;;;6.30;3.00;;;;;;;18.10;73.85;100354.63;693952;28;1743;-54
2021/08/16 00:31:27;;;;;;;5.35;2.80;;;;;;;18.06;73.83;100360.97;694468;28;1432;-52
2021/08/16 00:31:47;;;;;;;5.55;2.83;;;;;;;17.94;73.52;100364.94;689241;28;1819;-55
2021/08/16 00:32:08;;;;;;;5.03;2.77;;;;;;;17.94;73.62;100363.16;689098;28;1235;-55
2021/08/16 00:32:29;;;;;;;5.30;2.70;;;;;;;17.97;73.84;100364.81;689406;28;1295;-54
2021/08/16 00:32:49;;;;;;;6.20;3.10;;;;;;;17.92;73.90;100366.81;689454;28;1616;-53
2021/08/16 00:33:10;;;;;;;6.15;2.97;;;;;;;17.90;73.48;100368.59;689223;28;1742;-55
2021/08/16 00:33:30;;;;;;;5.57;2.80;;;;;;;17.89;74.07;100359.81;689800;28;1576;-56
2021/08/16 00:33:50;;;;;;;5.43;2.70;;;;;;;17.83;74.95;100362.69;693929;28;4752;-53
2021/08/16 00:34:11;;;;;;;6.50;3.30;;;;;;;17.83;74.25;100367.97;692597;28;4805;-56
2021/08/16 00:34:31;;;;;;;6.45;3.00;;;;;;;17.86;74.86;100357.28;692945;28;1606;-54
2021/08/16 00:34:51;;;;;;;6.87;3.10;;;;;;;18.11;73.10;100356.31;694233;28;1096;-50
2021/08/16 00:35:12;;;;;;;5.50;2.92;;;;;;;18.19;72.63;100362.16;693390;28;1274;-57
2021/08/16 00:35:32;;;;;;;6.87;3.20;;;;;;;18.09;72.63;100363.47;693856;28;1569;-56
2021/08/16 00:35:53;;;;;;;6.55;3.38;;;;;;;18.00;72.67;100362.91;694325;28;1577;-52
2021/08/16 00:36:13;;;;;;;7.00;3.50;;;;;;;18.08;72.63;100362.59;694224;28;1762;-55
2021/08/16 00:36:34;;;;;;;6.87;3.27;;;;;;;18.11;73.20;100362.47;694352;28;1583;-56
2021/08/16 00:36:54;;;;;;;5.37;3.13;;;;;;;18.11;72.83;100359.84;693093;28;4580;-53
2021/08/16 00:37:14;;;;;;;5.87;3.27;;;;;;;18.05;73.04;100362.72;693381;28;1804;-56
2021/08/16 00:37:35;;;;;;;6.90;3.38;;;;;;;17.96;73.12;100363.97;693154;28;1780;-53
2021/08/16 00:37:55;;;;;;;7.53;3.50;;;;;;;17.87;73.58;100364.28;693967;28;1569;-56
2021/08/16 00:38:16;;;;;;;6.10;3.40;;;;;;;17.84;74.40;100365.25;693734;28;1450;-52
2021/08/16 00:38:36;;;;;;;6.13;3.20;;;;;;;17.78;73.85;100365.53;694081;28;1880;-55
2021/08/16 00:38:57;;;;;;;6.03;3.00;;;;;;;17.82;73.84;100367.13;693780;28;1337;-59
2021/08/16 00:39:17;;;;;;;6.67;3.20;;;;;;;17.87;74.57;100370.47;690290;28;1520;-53
2021/08/16 00:39:37;;;;;;;5.32;3.13;;;;;;;17.91;73.95;100365.91;691278;28;4054;-56
2021/08/16 00:39:58;;;;;;;5.87;3.20;;;;;;;17.90;73.17;100368.59;689883;28;4527;-57
2021/08/16 00:40:18;;;;;;;6.20;3.15;;;;;;;17.85;73.43;100374.09;692966;28;2571;-51
2021/08/16 00:40:39;;;;;;;7.30;3.00;;;;;;;17.84;73.39;100369.72;693175;28;1590;-52
2021/08/16 00:41:01;;;;;;;6.93;3.10;;;;;;;17.90;73.83;100368.59;693117;28;1373;-52
2021/08/16 00:41:22;;;;;;;5.63;3.05;;;;;;;18.07;72.57;100363.53;695654;28;1230;-54
2021/08/16 00:41:46;;;;;;;5.85;2.90;;;;;;;18.10;72.19;100366.03;695548;28;1890;-55
2021/08/16 00:42:09;;;;;;;6.13;3.03;;;;;;;18.06;73.00;100366.25;693921;28;1383;-55
2021/08/16 00:42:31;;;;;;;6.55;3.20;;;;;;;17.91;73.37;100371.22;694172;28;1254;-55
2021/08/16 00:42:51;;;;;;;6.95;2.90;;;;;;;17.85;73.62;100371.44;692002;28;4578;-53
2021/08/16 00:43:12;;;;;;;6.17;3.03;;;;;;;17.78;73.50;100370.81;694153;28;1598;-55
2021/08/16 00:43:32;;;;;;;5.85;3.10;;;;;;;17.75;73.65;100380.63;693578;28;1754;-56
2021/08/16 00:43:52;;;;;;;6.17;3.00;;;;;;;17.78;73.86;100372.59;693015;28;1373;-52
2021/08/16 00:44:14;;;;;;;5.38;3.20;;;;;;;17.81;73.85;100369.84;694206;28;1781;-52
2021/08/16 00:44:35;;;;;;;5.57;2.83;;;;;;;18.08;73.52;100372.31;694236;28;982;-53
2021/08/16 00:44:55;;;;;;;6.07;2.78;;;;;;;18.10;72.70;100365.19;694407;28;1521;-51
2021/08/16 00:45:15;;;;;;;6.03;3.00;;;;;;;18.13;72.57;100371.19;693321;28;1758;-54
2021/08/16 00:45:36;;;;;;;5.78;2.95;;;;;;;18.10;72.70;100371.34;693134;28;3772;-56
2021/08/16 00:46:01;;;;;;;6.53;3.05;;;;;;;18.04;72.68;100372.44;692502;28;4600;-57
2021/08/16 00:46:21;;;;;;;4.95;2.83;;;;;;;17.92;73.20;100375.59;692553;28;1822;-54
2021/08/16 00:46:42;;;;;;;5.68;2.97;;;;;;;17.90;73.04;100372.09;692766;28;1815;-53
2021/08/16 00:47:03;;;;;;;6.75;2.80;;;;;;;17.93;73.00;100373.78;693117;28;1432;-52
2021/08/16 00:47:24;;;;;;;6.15;2.80;;;;;;;17.89;72.84;100373.03;694651;28;1390;-56
2021/08/16 00:47:44;;;;;;;6.05;2.78;;;;;;;17.94;72.89;100376.38;691553;28;1691;-54
2021/08/16 00:48:05;;;;;;;6.83;2.57;;;;;;;17.89;72.38;100378.31;694704;28;1222;-53
2021/08/16 00:48:26;;;;;;;4.37;2.40;;;;;;;17.83;72.33;100375.91;694900;28;1764;-54
2021/08/16 00:48:46;;;;;;;5.68;2.50;;;;;;;17.78;72.52;100370.81;693061;28;4349;-54
2021/08/16 00:49:07;;;;;;;7.00;2.70;;;;;;;17.81;72.91;100372.47;693828;28;1677;-55
2021/08/16 00:49:27;;;;;;;6.28;2.67;;;;;;;17.76;72.84;100377.94;694179;28;1838;-55
2021/08/16 00:49:48;;;;;;;5.63;2.70;;;;;;;17.72;73.22;100373.69;693032;28;1905;-52
2021/08/16 00:50:10;;;;;;;5.63;2.53;;;;;;;17.73;73.90;100383.34;694094;28;1296;-53
2021/08/16 00:50:31;;;;;;;5.65;2.42;;;;;;;17.87;72.44;100378.38;694148;28;1480;-54
2021/08/16 00:50:51;;;;;;;5.43;2.47;;;;;;;17.83;72.82;100382.06;694858;28;1707;-53
2021/08/16 00:51:12;;;;;;;5.50;2.60;;;;;;;17.79;73.28;100382.25;694054;28;1589;-53
2021/08/16 00:51:35;;;;;;;6.70;2.60;;;;;;;17.83;72.93;100387.38;693503;28;4659;-54
2021/08/16 00:51:57;;;;;;;4.82;2.50;;;;;;;17.80;73.13;100382.19;693908;28;4405;-51
2021/08/16 00:52:17;;;;;;;4.70;2.17;;;;;;;17.67;71.60;100387.09;694179;28;1754;-55
2021/08/16 00:52:40;;;;;;;5.37;2.30;;;;;;;17.66;70.73;100385.34;693101;28;1294;-55
2021/08/16 00:53:02;;;;;;;5.85;2.58;;;;;;;17.72;70.83;100383.41;693552;28;1396;-52
2021/08/16 00:53:22;;;;;;;5.47;2.30;;;;;;;17.80;70.85;100383.97;694042;28;1825;-53
2021/08/16 00:53:44;;;;;;;6.25;2.20;;;;;;;17.79;70.73;100384.88;693498;28;2080;-53
2021/08/16 00:54:08;;;;;;;5.35;2.30;;;;;;;17.67;70.63;100389.72;692832;28;1257;-52
2021/08/16 00:54:28;;;;;;;5.90;2.60;;;;;;;17.60;70.88;100388.25;693864;28;3962;-56
2021/08/16 00:54:50;;;;;;;5.45;2.33;;;;;;;17.55;71.55;100384.06;693797;28;5352;-50
2021/08/16 00:55:12;;;;;;;6.10;2.30;;;;;;;17.62;70.64;100386.41;693135;28;1958;-54
2021/08/16 00:55:34;;;;;;;5.25;2.25;;;;;;;17.49;70.50;100387.81;694149;28;1947;-53
2021/08/16 00:55:55;;;;;;;6.63;2.58;;;;;;;17.47;70.95;100389.63;694355;28;1485;-52
2021/08/16 00:56:15;;;;;;;7.90;2.70;;;;;;;17.44;71.31;100395.03;694380;28;1294;-57
2021/08/16 00:56:36;;;;;;;6.60;2.30;;;;;;;17.54;71.13;100391.13;693923;28;1730;-51
2021/08/16 00:56:59;;;;;;;4.75;2.28;;;;;;;17.58;70.52;100392.72;692970;28;1250;-56
2021/08/16 00:57:21;;;;;;;5.57;2.35;;;;;;;17.40;70.14;100396.06;695019;28;1416;-55
2021/08/16 00:57:42;;;;;;;6.38;2.30;;;;;;;17.22;70.72;100387.03;692171;28;4499;-54
2021/08/16 00:58:02;;;;;;;7.85;2.10;;;;;;;17.29;71.41;100392.06;690873;28;1894;-56
2021/08/16 00:58:23;;;;;;;4.80;2.10;;;;;;;17.30;71.39;100387.63;692562;28;1666;-52
2021/08/16 00:58:44;;;;;;;4.57;2.33;;;;;;;17.40;71.81;100386.34;695510;28;1650;-53
2021/08/16 00:59:06;;;;;;;4.95;2.30;;;;;;;17.48;71.20;100389.56;692378;28;1318;-56
2021/08/16 00:59:27;;;;;;;6.63;2.25;;;;;;;17.44;71.75;100389.75;692346;28;1604;-53
2021/08/16 00:59:48;;;;;;;6.10;2.15;;;;;;;17.49;71.12;100385.16;692585;28;1721;-53
2021/08/16 01:00:11;;;;;;;5.78;2.30;;;;;;;17.44;71.59;100382.69;691884;28;1423;-54
2021/08/16 01:00:31;;;;;;;6.50;2.20;;;;;;;17.48;70.69;100389.56;691544;28;4326;-53
2021/08/16 01:00:57;;;;;;;5.07;2.23;;;;;;;17.57;70.66;100388.38;693605;28;4625;-55
2021/08/16 01:01:18;;;;;;;5.97;2.40;;;;;;;17.63;69.12;100389.91;693889;28;1376;-53
2021/08/16 01:01:39;;;;;;;5.53;2.23;;;;;;;17.59;69.19;100389.16;694827;28;1178;-54
2021/08/16 01:01:59;;;;;;;7.18;2.47;;;;;;;17.53;69.92;100392.06;694155;28;1335;-50
2021/08/16 01:02:20;;;;;;;6.50;2.33;;;;;;;17.48;69.78;100383.44;694075;28;1843;-53
2021/08/16 01:02:43;;;;;;;6.20;2.15;;;;;;;17.41;70.17;100389.88;695340;28;1144;-54
2021/08/16 01:03:03;;;;;;;6.82;2.28;;;;;;;17.32;70.28;100394.59;694433;28;1194;-51
2021/08/16 01:03:33;;;;;;;6.70;2.20;;;;;;;17.22;70.59;100385.25;694079;28;3912;-53
2021/08/16 01:03:53;;;;;;;5.78;2.13;;;;;;;17.16;70.75;100388.13;690335;28;4568;-52
2021/08/16 01:04:14;;;;;;;5.03;2.03;;;;;;;17.26;70.82;100383.38;691532;28;2116;-56
2021/08/16 01:04:34;;;;;;;5.47;2.08;;;;;;;17.32;71.25;100386.66;694656;28;1325;-53
2021/08/16 01:04:55;;;;;;;5.50;2.43;;;;;;;17.28;71.20;100387.69;694687;28;1135;-54
2021/08/16 01:05:15;;;;;;;5.25;2.30;;;;;;;17.30;70.99;100387.63;690772;28;1152;-52
2021/08/16 01:05:36;;;;;;;5.57;2.23;;;;;;;17.20;70.52;100387.09;690856;28;1923;-51
2021/08/16 01:06:00;;;;;;;5.80;2.22;;;;;;;17.11;71.68;100390.06;688941;28;1330;-50
2021/08/16 01:06:21;;;;;;;5.47;2.20;;;;;;;17.01;71.92;100389.53;689017;28;3938;-55
2021/08/16 01:06:41;;;;;;;7.07;2.28;;;;;;;16.93;71.63;100392.44;688321;28;4641;-51
2021/08/16 01:07:02;;;;;;;6.37;2.30;;;;;;;16.88;71.67;100391.75;688631;28;1602;-53
2021/08/16 01:07:22;;;;;;;5.97;2.45;;;;;;;16.88;71.99;100391.75;690499;28;1165;-55
2021/08/16 01:07:47;;;;;;;5.73;2.30;;;;;;;16.92;72.64;100396.03;692174;28;1745;-52
2021/08/16 01:08:08;;;;;;;6.28;2.17;;;;;;;16.93;71.11;100392.44;691437;28;1314;-51
2021/08/16 01:08:28;;;;;;;4.53;2.00;;;;;;;16.98;71.78;100395.78;691119;28;1164;-52
2021/08/16 01:08:52;;;;;;;7.23;2.20;;;;;;;17.02;71.98;100394.78;691995;28;1193;-50
2021/08/16 01:09:12;;;;;;;8.15;2.22;;;;;;;17.18;70.28;100396.84;688414;28;3472;-50
2021/08/16 01:09:33;;;;;;;6.28;2.30;;;;;;;17.33;70.37;100396.31;689180;28;4293;-54
2021/08/16 01:09:54;;;;;;;5.82;2.25;;;;;;;17.31;70.43;100398.13;690332;28;4596;-51
2021/08/16 01:10:15;;;;;;;5.57;2.10;;;;;;;17.26;70.93;100402.72;694513;28;1944;-54
2021/08/16 01:10:36;;;;;;;6.90;2.40;;;;;;;17.29;69.49;100396.47;694936;28;940;-54
2021/08/16 01:10:56;;;;;;;6.10;2.30;;;;;;;17.38;69.28;100401.41;695196;28;1358;-56
2021/08/16 01:11:17;;;;;;;6.35;2.10;;;;;;;17.26;69.40;100394.78;695423;28;1342;-54
2021/08/16 01:11:38;;;;;;;6.03;2.03;;;;;;;17.16;69.73;100396.91;697725;28;1365;-53
2021/08/16 01:11:59;;;;;;;6.13;2.30;;;;;;;17.11;69.96;100398.00;696853;28;1479;-51
2021/08/16 01:12:19;;;;;;;6.10;2.10;;;;;;;17.19;70.23;100401.22;696615;28;3413;-54
2021/08/16 01:12:40;;;;;;;5.85;2.08;;;;;;;17.22;69.82;100395.81;696139;28;4544;-52
2021/08/16 01:13:01;;;;;;;6.90;2.30;;;;;;;17.17;70.23;100403.06;696595;28;1718;-56
2021/08/16 01:13:21;;;;;;;6.05;2.08;;;;;;;17.09;69.52;100397.22;696385;28;1135;-53
2021/08/16 01:13:42;;;;;;;6.97;2.20;;;;;;;16.93;69.66;100392.44;695137;28;1215;-53
2021/08/16 01:14:04;;;;;;;6.65;2.30;;;;;;;16.89;70.13;100390.88;694432;28;1595;-54
2021/08/16 01:14:24;;;;;;;6.93;2.33;;;;;;;16.90;70.84;100397.84;694719;28;1587;-52
2021/08/16 01:14:44;;;;;;;5.63;2.37;;;;;;;17.02;70.70;100401.84;692516;28;1396;-51
2021/08/16 01:15:07;;;;;;;6.78;2.15;;;;;;;17.02;69.99;100399.19;694140;28;1529;-55
2021/08/16 01:15:31;;;;;;;7.20;2.35;;;;;;;16.92;70.62;100401.31;694554;28;4270;-53
2021/08/16 01:16:13;;;;;;;6.53;2.20;;;;;;;16.88;71.79;100401.41;695871;28;4640;-51
2021/08/16 01:16:33;;;;;;;7.20;2.30;;;;;;;16.76;71.43;100400.09;697205;28;1474;-54
2021/08/16 01:16:54;;;;;;;7.18;2.33;;;;;;;16.71;70.95;100399.38;696650;28;1461;-51
2021/08/16 01:17:14;;;;;;;5.73;2.20;;;;;;;16.65;71.21;100403.09;693599;28;1895;-53
2021/08/16 01:17:35;;;;;;;5.47;2.13;;;;;;;16.59;71.35;100400.66;694676;28;1780;-55
2021/08/16 01:17:56;;;;;;;7.73;2.40;;;;;;;16.56;72.15;100399.00;694232;28;1561;-53
2021/08/16 01:18:17;;;;;;;7.22;2.28;;;;;;;16.52;72.16;100402.66;693318;28;4253;-51
2021/08/16 01:18:37;;;;;;;5.57;2.20;;;;;;;16.49;72.41;100400.09;692561;28;1803;-52
2021/08/16 01:18:57;;;;;;;6.53;2.30;;;;;;;16.63;72.13;100397.88;692330;28;4351;-54
2021/08/16 01:19:22;;;;;;;6.87;2.40;;;;;;;16.68;71.47;100400.34;697297;28;1786;-52
2021/08/16 01:19:44;;;;;;;7.82;2.50;;;;;;;16.64;71.62;100391.69;697521;28;1467;-52
2021/08/16 01:20:07;;;;;;;7.78;2.50;;;;;;;16.63;73.71;100394.38;693859;28;1766;-54
2021/08/16 01:20:27;;;;;;;7.07;2.13;;;;;;;16.54;72.02;100403.44;692064;28;1241;-55
2021/08/16 01:20:48;;;;;;;5.53;2.10;;;;;;;16.55;72.55;100402.53;692809;28;1687;-54
2021/08/16 01:21:11;;;;;;;5.95;2.20;;;;;;;16.57;71.25;100399.84;692299;28;4047;-53
2021/08/16 01:21:31;;;;;;;6.88;2.45;;;;;;;16.44;71.31;100397.63;692227;28;4246;-52
2021/08/16 01:21:52;;;;;;;6.50;2.47;;;;;;;16.44;71.66;100400.25;693471;28;4443;-54
2021/08/16 01:22:12;;;;;;;7.07;2.40;;;;;;;16.46;72.55;100402.84;694809;28;1981;-56
2021/08/16 01:22:33;;;;;;;8.90;2.53;;;;;;;16.48;72.51;100401.03;697255;28;1537;-55
2021/08/16 01:22:56;;;;;;;6.95;2.72;;;;;;;16.49;72.39;100410.66;696380;28;1793;-56
2021/08/16 01:23:16;;;;;;;7.60;2.33;;;;;;;16.47;72.18;100399.28;696255;28;1503;-54
2021/08/16 01:23:38;;;;;;;6.70;2.40;;;;;;;16.49;71.70;100397.44;696956;28;1559;-53
2021/08/16 01:23:58;;;;;;;5.70;2.35;;;;;;;16.52;71.93;100403.50;697883;28;1027;-53
2021/08/16 01:24:19;;;;;;;5.65;2.30;;;;;;;16.55;72.13;100402.53;694239;28;4126;-52
2021/08/16 01:24:41;;;;;;;6.47;2.40;;;;;;;16.75;71.83;100403.63;693340;28;4360;-51
2021/08/16 01:25:03;;;;;;;6.45;2.10;;;;;;;16.77;71.44;100394.75;694233;28;1918;-56
2021/08/16 01:25:26;;;;;;;7.43;2.35;;;;;;;16.73;71.66;100402.84;694810;28;1136;-55
2021/08/16 01:25:47;;;;;;;6.93;2.40;;;;;;;16.65;71.41;100398.66;694064;28;1922;-51
2021/08/16 01:26:08;;;;;;;6.65;2.47;;;;;;;16.62;71.95;100398.78;694246;28;1499;-52
2021/08/16 01:26:35;;;;;;;7.65;2.33;;;;;;;16.58;73.48;100404.22;697580;28;1517;-53
2021/08/16 01:26:55;;;;;;;7.85;2.53;;;;;;;16.68;72.08;100398.56;694572;28;963;-55
2021/08/16 01:27:16;;;;;;;7.57;2.60;;;;;;;16.67;71.75;100401.28;693673;28;3701;-52
2021/08/16 01:27:37;;;;;;;7.25;2.45;;;;;;;16.53;72.38;100401.72;694232;28;1746;-52
2021/08/16 01:27:57;;;;;;;7.85;2.60;;;;;;;16.58;72.00;100399.78;693582;28;4318;-55
2021/08/16 01:28:19;;;;;;;7.87;2.40;;;;;;;16.57;71.51;100400.69;694433;28;1796;-52
2021/08/16 01:28:40;;;;;;;6.70;2.30;;;;;;;16.58;72.10;100404.22;694659;28;1635;-52
2021/08/16 01:29:13;;;;;;;8.27;2.50;;;;;;;16.66;71.79;100394.25;693057;28;1267;-51
2021/08/16 01:29:34;;;;;;;7.40;2.30;;;;;;;16.76;70.69;100400.09;694016;28;1793;-52
2021/08/16 01:29:56;;;;;;;7.50;2.43;;;;;;;16.64;71.03;100398.72;694889;28;923;-55
2021/08/16 01:30:18;;;;;;;6.65;2.60;;;;;;;16.58;71.24;100407.72;691144;28;4078;-52
2021/08/16 01:30:39;;;;;;;6.18;2.50;;;;;;;16.57;71.32;100405.13;691021;28;1497;-51
2021/08/16 01:31:02;;;;;;;5.93;2.40;;;;;;;16.52;70.91;100402.66;691620;28;4765;-52
2021/08/16 01:31:23;;;;;;;6.50;2.38;;;;;;;16.46;70.63;100402.84;691567;28;1331;-52
2021/08/16 01:31:44;;;;;;;6.27;2.50;;;;;;;16.40;70.83;100408.34;692192;28;1334;-53
2021/08/16 01:32:05;;;;;;;6.80;2.72;;;;;;;16.36;71.15;100406.72;692693;28;1388;-54
2021/08/16 01:32:25;;;;;;;7.97;2.88;;;;;;;16.38;71.41;100408.38;695373;28;1372;-51
2021/08/16 01:32:46;;;;;;;7.22;2.55;;;;;;;16.33;71.89;100405.88;694785;28;1823;-52
2021/08/16 01:33:06;;;;;;;8.00;2.60;;;;;;;16.29;72.00;100406.88;694171;28;4150;-55
2021/08/16 01:33:28;;;;;;;7.63;2.60;;;;;;;16.39;71.81;100402.19;694934;28;1608;-51
2021/08/16 01:33:49;;;;;;;7.10;2.70;;;;;;;16.44;71.31;100402.03;694216;28;4518;-51
2021/08/16 01:34:09;;;;;;;6.47;2.60;;;;;;;16.45;71.43;100399.34;691694;28;1151;-51
2021/08/16 01:34:30;;;;;;;5.50;2.40;;;;;;;16.44;71.50;100400.25;690769;28;1250;-51
2021/08/16 01:34:51;;;;;;;7.05;2.63;;;;;;;16.45;71.47;100402.00;689365;28;1517;-56
2021/08/16 01:35:12;;;;;;;7.82;2.63;;;;;;;16.54;71.06;100397.31;688586;28;1304;-55
2021/08/16 01:35:32;;;;;;;7.90;2.70;;;;;;;16.50;70.98;100400.06;688807;28;1240;-54
2021/08/16 01:35:52;;;;;;;6.80;2.57;;;;;;;16.44;71.58;100394.13;690016;28;1753;-51
2021/08/16 01:36:13;;;;;;;6.00;2.50;;;;;;;16.46;71.64;100392.28;691565;28;3802;-53
2021/08/16 01:36:33;;;;;;;6.00;2.30;;;;;;;16.60;71.13;100402.38;692559;28;1667;-56
2021/08/16 01:36:53;;;;;;;5.83;2.43;;;;;;;16.52;71.58;100398.22;693187;28;4340;-54
2021/08/16 01:37:14;;;;;;;7.13;3.17;;;;;;;16.49;71.83;100394.81;693923;28;1904;-53
2021/08/16 01:37:34;;;;;;;6.83;2.40;;;;;;;16.39;72.24;100396.03;694016;28;1369;-52
2021/08/16 01:37:55;;;;;;;6.90;2.40;;;;;;;16.39;72.47;100396.03;693789;28;1607;-51
2021/08/16 01:38:19;;;;;;;7.10;2.30;;;;;;;16.37;72.64;100392.63;693982;28;1775;-52
2021/08/16 01:38:43;;;;;;;7.45;2.60;;;;;;;16.32;72.30;100400.66;694080;28;1606;-54
2021/08/16 01:39:05;;;;;;;7.25;2.55;;;;;;;16.29;72.43;100390.22;693863;28;3011;-55
2021/08/16 01:39:26;;;;;;;6.78;2.58;;;;;;;16.22;72.90;100389.53;693622;28;1634;-55
2021/08/16 01:39:47;;;;;;;6.95;2.63;;;;;;;16.19;72.95;100394.94;693213;28;4550;-55
2021/08/16 01:40:12;;;;;;;7.87;2.50;;;;;;;16.20;72.97;100399.31;695067;28;1616;-55
2021/08/16 01:40:33;;;;;;;7.32;2.50;;;;;;;16.19;72.92;100399.34;694946;28;1123;-55
2021/08/16 01:40:53;;;;;;;7.03;2.43;;;;;;;16.14;73.19;100397.72;695482;28;904;-56